createdAt,value
2023-01-29T00:02:20.451Z,15.20
2023-01-29T00:04:47.298Z,12.83
2023-01-29T00:07:14.070Z,12.13
2023-01-29T00:09:43.356Z,14.03
2023-01-29T00:12:10.133Z,14.70
2023-01-29T00:14:41.782Z,16.70
2023-01-29T00:17:08.824Z,16.40
2023-01-29T00:19:36.264Z,13.57
2023-01-29T00:22:03.034Z,14.57
2023-01-29T00:24:32.992Z,12.97
2023-01-29T00:26:59.843Z,14.97
2023-01-29T00:29:26.622Z,12.57
2023-01-29T00:31:53.481Z,13.77
2023-01-29T00:34:23.524Z,10.00
2023-01-29T00:36:50.313Z,15.90
2023-01-29T00:39:17.095Z,13.57
2023-01-29T00:42:04.940Z,10.90
2023-01-29T00:44:50.383Z,10.10
2023-01-29T00:47:33.711Z,11.47
2023-01-29T00:50:01.676Z,12.60
2023-01-29T00:52:28.807Z,12.00
2023-01-29T00:54:57.119Z,13.87
2023-01-29T00:57:27.184Z,11.37
2023-01-29T00:59:56.277Z,10.07
2023-01-29T01:02:41.882Z,9.13
2023-01-29T01:05:16.689Z,9.30
2023-01-29T01:07:50.765Z,10.00
2023-01-29T01:10:21.580Z,11.23
2023-01-29T01:12:59.646Z,7.63
2023-01-29T01:15:31.316Z,9.03
2023-01-29T01:17:59.140Z,10.20
2023-01-29T01:20:26.608Z,11.20
2023-01-29T01:22:56.547Z,8.30
2023-01-29T01:25:26.726Z,10.80
2023-01-29T01:27:57.209Z,10.00
2023-01-29T01:30:24.324Z,9.80
2023-01-29T01:32:53.625Z,9.67
2023-01-29T01:35:20.414Z,9.70
2023-01-29T01:37:49.766Z,15.53
2023-01-29T01:40:21.326Z,10.80
2023-01-29T01:42:49.503Z,12.30
2023-01-29T01:45:24.624Z,11.73
2023-01-29T01:48:04.599Z,12.80
2023-01-29T01:50:43.197Z,13.73
2023-01-29T01:53:12.254Z,13.07
2023-01-29T01:55:54.021Z,15.83
2023-01-29T01:58:26.367Z,13.57
2023-01-29T02:00:53.207Z,13.00
2023-01-29T02:03:38.814Z,14.53
2023-01-29T02:06:24.061Z,11.57
2023-01-29T02:09:15.259Z,10.87
2023-01-29T02:11:44.484Z,12.53
2023-01-29T02:14:13.714Z,11.73
2023-01-29T02:16:42.950Z,12.13
2023-01-29T02:19:56.906Z,17.43
2023-01-29T02:23:05.019Z,13.23
2023-01-29T02:25:56.184Z,14.67
2023-01-29T02:28:29.133Z,16.10
2023-01-29T02:31:09.544Z,16.47
2023-01-29T02:33:43.212Z,14.80
2023-01-29T02:36:28.144Z,14.27
2023-01-29T02:39:37.942Z,14.80
2023-01-29T02:42:49.053Z,15.00
2023-01-29T02:45:33.723Z,14.10
2023-01-29T02:48:01.902Z,16.17
2023-01-29T02:50:33.912Z,16.43
2023-01-29T02:53:09.747Z,15.40
2023-01-29T02:55:40.247Z,14.00
2023-01-29T02:58:16.096Z,12.70
2023-01-29T03:00:47.330Z,13.23
2023-01-29T03:03:21.197Z,14.83
2023-01-29T03:06:02.290Z,15.47
2023-01-29T03:08:37.385Z,16.53
2023-01-29T03:11:07.308Z,13.73
2023-01-29T03:13:50.370Z,16.17
2023-01-29T03:16:19.268Z,13.27
2023-01-29T03:19:11.657Z,11.93
2023-01-29T03:21:51.305Z,15.03
2023-01-29T03:24:41.093Z,15.60
2023-01-29T03:27:27.400Z,14.57
2023-01-29T03:30:13.126Z,17.37
2023-01-29T03:32:42.526Z,16.13
2023-01-29T03:35:10.616Z,16.13
2023-01-29T03:37:41.694Z,14.27
2023-01-29T03:40:11.875Z,12.70
2023-01-29T03:42:49.296Z,16.17
2023-01-29T03:45:25.492Z,14.27
2023-01-29T03:48:16.393Z,17.10
2023-01-29T03:51:10.555Z,15.20
2023-01-29T03:53:48.541Z,16.23
2023-01-29T03:56:25.322Z,12.50
2023-01-29T03:59:15.921Z,13.77
2023-01-29T04:01:54.666Z,14.33
2023-01-29T04:04:29.515Z,11.90
2023-01-29T04:07:00.512Z,15.10
2023-01-29T04:09:56.507Z,15.30
2023-01-29T04:12:29.327Z,14.67
2023-01-29T04:14:56.076Z,15.87
2023-01-29T04:17:29.910Z,18.50
2023-01-29T04:19:59.280Z,15.47
2023-01-29T04:22:35.940Z,16.57
2023-01-29T04:25:08.568Z,16.77
2023-01-29T04:27:57.425Z,18.57
2023-01-29T04:30:39.256Z,15.97
2023-01-29T04:33:41.945Z,17.83
2023-01-29T04:36:27.299Z,13.67
2023-01-29T04:39:17.487Z,13.37
2023-01-29T04:42:07.221Z,14.93
2023-01-29T04:44:41.533Z,13.97
2023-01-29T04:47:11.314Z,15.23
2023-01-29T04:50:00.333Z,14.23
2023-01-29T04:52:35.589Z,15.33
2023-01-29T04:55:05.568Z,17.07
2023-01-29T04:57:34.973Z,14.83
2023-01-29T05:00:08.606Z,15.43
2023-01-29T05:02:39.312Z,13.37
2023-01-29T05:05:07.044Z,14.83
2023-01-29T05:07:37.175Z,16.30
2023-01-29T05:10:08.310Z,13.10
2023-01-29T05:12:35.066Z,14.97
2023-01-29T05:15:08.438Z,19.30
2023-01-29T05:17:35.212Z,13.93
2023-01-29T05:20:02.004Z,19.13
2023-01-29T05:22:31.052Z,14.83
2023-01-29T05:24:57.886Z,15.40
2023-01-29T05:27:47.978Z,16.53
2023-01-29T05:30:17.407Z,15.47
2023-01-29T05:32:46.632Z,13.43
2023-01-29T05:35:14.009Z,18.60
2023-01-29T05:37:40.851Z,16.77
2023-01-29T05:40:13.262Z,16.27
2023-01-29T05:42:40.049Z,14.13
2023-01-29T05:45:07.646Z,17.90
2023-01-29T05:47:34.432Z,19.17
2023-01-29T05:50:01.275Z,17.47
2023-01-29T05:52:30.524Z,16.83
2023-01-29T05:54:59.819Z,14.43
2023-01-29T05:57:26.668Z,17.00
2023-01-29T05:59:55.666Z,18.37
2023-01-29T06:02:22.540Z,14.10
2023-01-29T06:04:52.621Z,15.57
2023-01-29T06:07:19.411Z,16.73
2023-01-29T06:09:46.223Z,20.67
2023-01-29T06:12:13.075Z,16.87
2023-01-29T06:14:42.204Z,20.30
2023-01-29T06:17:11.175Z,18.87
2023-01-29T06:19:37.997Z,18.47
2023-01-29T06:22:04.787Z,18.60
2023-01-29T06:24:36.160Z,18.63
2023-01-29T06:27:03.020Z,22.93
2023-01-29T06:29:29.807Z,20.63
2023-01-29T06:31:56.678Z,19.37
2023-01-29T06:34:23.475Z,19.47
2023-01-29T06:36:50.268Z,18.53
2023-01-29T06:39:17.093Z,17.13
2023-01-29T06:41:46.502Z,20.37
2023-01-29T06:44:15.524Z,23.93
2023-01-29T06:46:44.441Z,19.30
2023-01-29T06:49:11.180Z,18.20
2023-01-29T06:51:37.977Z,17.03
2023-01-29T06:54:06.413Z,19.00
2023-01-29T06:56:33.225Z,19.47
2023-01-29T06:59:00.188Z,18.80
2023-01-29T07:01:35.654Z,22.47
2023-01-29T07:04:03.038Z,18.57
2023-01-29T07:06:30.092Z,20.47
2023-01-29T07:09:01.636Z,23.00
2023-01-29T07:11:28.438Z,18.00
2023-01-29T07:13:55.225Z,19.13
2023-01-29T07:16:22.076Z,21.80
2023-01-29T07:18:48.944Z,17.73
2023-01-29T07:21:15.743Z,20.60
2023-01-29T07:23:42.512Z,19.37
2023-01-29T07:26:10.444Z,17.87
2023-01-29T07:28:38.161Z,21.07
2023-01-29T07:31:05.127Z,19.60
2023-01-29T07:33:32.080Z,17.37
2023-01-29T07:35:58.923Z,18.07
2023-01-29T07:38:28.189Z,18.63
2023-01-29T07:40:54.971Z,16.53
2023-01-29T07:43:25.098Z,17.67
2023-01-29T07:45:52.268Z,18.80
2023-01-29T07:48:19.234Z,15.70
2023-01-29T07:50:53.808Z,20.63
2023-01-29T07:53:20.566Z,18.47
2023-01-29T07:55:47.326Z,18.20
2023-01-29T07:58:14.076Z,22.00
2023-01-29T08:00:40.942Z,15.43
2023-01-29T08:03:14.339Z,18.83
2023-01-29T08:05:43.970Z,16.40
2023-01-29T08:08:10.832Z,13.23
2023-01-29T08:10:41.003Z,17.17
2023-01-29T08:13:10.382Z,21.47
2023-01-29T08:15:39.070Z,18.23
2023-01-29T08:18:06.050Z,16.07
2023-01-29T08:20:33.248Z,17.07
2023-01-29T08:23:08.363Z,15.57
2023-01-29T08:25:35.875Z,16.43
2023-01-29T08:28:02.665Z,17.27
2023-01-29T08:30:31.287Z,15.40
2023-01-29T08:33:02.670Z,17.60
2023-01-29T08:35:29.436Z,16.20
2023-01-29T08:38:03.382Z,15.27
2023-01-29T08:40:32.029Z,17.63
2023-01-29T08:43:03.512Z,17.67
2023-01-29T08:45:33.409Z,18.90
2023-01-29T08:48:00.169Z,16.13
2023-01-29T08:50:30.563Z,16.40
2023-01-29T08:52:59.021Z,16.07
2023-01-29T08:55:28.616Z,18.80
2023-01-29T08:57:57.393Z,16.33
2023-01-29T09:00:24.651Z,18.03
2023-01-29T09:02:51.446Z,18.60
2023-01-29T09:05:18.742Z,17.60
2023-01-29T09:07:45.847Z,21.57
2023-01-29T09:10:12.670Z,17.03
2023-01-29T09:12:39.473Z,19.30
2023-01-29T09:15:06.665Z,20.57
2023-01-29T09:17:33.389Z,17.87
2023-01-29T09:20:02.275Z,19.67
2023-01-29T09:22:29.080Z,21.53
2023-01-29T09:25:00.552Z,17.97
2023-01-29T09:27:27.395Z,17.20
2023-01-29T09:29:54.179Z,19.70
2023-01-29T09:35:10.617Z,19.60
2023-01-29T09:37:37.402Z,20.43
2023-01-29T09:40:06.780Z,17.27
2023-01-29T09:42:48.638Z,21.67
2023-01-29T09:45:17.535Z,20.80
2023-01-29T09:47:44.840Z,21.00
2023-01-29T09:50:30.045Z,24.67
2023-01-29T09:53:24.569Z,17.07
2023-01-29T09:56:03.933Z,18.03
2023-01-29T09:58:37.563Z,20.47
2023-01-29T10:01:08.416Z,19.63
2023-01-29T10:03:57.661Z,19.40
2023-01-29T10:06:46.008Z,21.33
2023-01-29T10:09:50.332Z,16.87
2023-01-29T10:12:38.467Z,20.53
2023-01-29T10:15:17.619Z,19.13
2023-01-29T10:18:06.076Z,20.87
2023-01-29T10:20:39.414Z,17.87
2023-01-29T10:23:31.503Z,19.93
2023-01-29T10:26:01.687Z,27.23
2023-01-29T10:28:39.512Z,21.70
2023-01-29T10:31:27.824Z,22.80
2023-01-29T10:34:02.805Z,19.33
2023-01-29T10:36:49.033Z,24.53
2023-01-29T10:39:20.637Z,23.27
2023-01-29T10:42:11.868Z,23.17
2023-01-29T10:44:59.670Z,23.17
2023-01-29T10:47:40.494Z,20.30
2023-01-29T10:50:24.837Z,19.63
2023-01-29T10:53:08.162Z,27.83
2023-01-29T10:55:51.205Z,22.23
2023-01-29T10:58:30.191Z,20.97
2023-01-29T11:00:59.455Z,22.13
2023-01-29T11:03:31.329Z,23.57
2023-01-29T11:05:59.691Z,22.90
2023-01-29T11:08:33.149Z,27.70
2023-01-29T11:11:18.709Z,26.00
2023-01-29T11:13:58.091Z,27.80
2023-01-29T11:16:30.314Z,27.17
2023-01-29T11:18:58.654Z,23.20
2023-01-29T11:21:28.448Z,23.37
2023-01-29T11:24:16.884Z,22.70
2023-01-29T11:26:46.766Z,22.27
2023-01-29T11:29:42.053Z,19.13
2023-01-29T11:32:26.561Z,23.03
2023-01-29T11:35:06.784Z,24.57
2023-01-29T11:37:37.459Z,22.13
2023-01-29T11:40:19.819Z,21.63
2023-01-29T11:42:47.104Z,23.67
2023-01-29T11:45:22.304Z,23.03
2023-01-29T11:47:56.118Z,25.70
2023-01-29T11:50:28.137Z,24.87
2023-01-29T11:52:54.905Z,21.77
2023-01-29T11:55:40.992Z,19.67
2023-01-29T11:58:25.979Z,21.90
2023-01-29T12:00:53.652Z,21.33
2023-01-29T12:03:28.951Z,20.93
2023-01-29T12:06:01.059Z,20.30
2023-01-29T12:08:30.858Z,22.10
2023-01-29T12:11:16.270Z,22.57
2023-01-29T12:13:45.132Z,23.30
2023-01-29T12:16:42.938Z,22.40
2023-01-29T12:19:13.847Z,16.93
2023-01-29T12:21:52.084Z,20.63
2023-01-29T12:24:31.140Z,24.10
2023-01-29T12:27:17.830Z,22.50
2023-01-29T12:29:50.588Z,24.43
2023-01-29T12:32:41.423Z,23.80
2023-01-29T12:35:26.264Z,26.17
2023-01-29T12:38:13.681Z,23.27
2023-01-29T12:40:50.597Z,24.53
2023-01-29T12:43:38.623Z,24.87
2023-01-29T12:46:08.109Z,26.70
2023-01-29T12:48:35.290Z,21.83
2023-01-29T12:51:09.674Z,26.83
2023-01-29T12:53:45.059Z,25.63
2023-01-29T12:56:33.875Z,29.40
2023-01-29T12:59:13.012Z,26.13
2023-01-29T13:02:16.893Z,24.83
2023-01-29T13:04:48.785Z,24.77
2023-01-29T13:07:18.961Z,30.77
2023-01-29T13:09:48.523Z,29.23
2023-01-29T13:12:19.542Z,26.83
2023-01-29T13:14:51.703Z,31.90
2023-01-29T13:17:23.658Z,27.47
2023-01-29T13:19:51.538Z,24.43
2023-01-29T13:22:28.701Z,32.70
2023-01-29T13:25:04.533Z,31.00
2023-01-29T13:27:33.105Z,32.43
2023-01-29T13:30:02.586Z,31.03
2023-01-29T13:32:30.804Z,31.27
2023-01-29T13:35:05.706Z,31.03
2023-01-29T13:37:37.059Z,28.63
2023-01-29T13:40:05.564Z,36.93
2023-01-29T13:42:47.104Z,32.67
2023-01-29T13:45:43.789Z,32.07
2023-01-29T13:48:32.390Z,31.43
2023-01-29T13:51:02.898Z,36.43
2023-01-29T13:53:34.850Z,34.27
2023-01-29T13:56:42.206Z,36.47
2023-01-29T13:59:21.111Z,32.47
2023-01-29T14:01:47.892Z,35.77
2023-01-29T14:04:25.602Z,34.03
2023-01-29T14:06:54.520Z,34.27
2023-01-29T14:09:39.404Z,33.27
2023-01-29T14:12:24.617Z,37.37
2023-01-29T14:14:57.419Z,39.47
2023-01-29T14:17:26.978Z,41.83
2023-01-29T14:20:04.624Z,41.63
2023-01-29T14:22:34.755Z,41.33
2023-01-29T14:25:03.435Z,44.73
2023-01-29T14:27:30.290Z,43.27
2023-01-29T14:30:03.415Z,39.67
2023-01-29T14:32:30.230Z,38.10
2023-01-29T14:35:41.292Z,38.33
2023-01-29T14:38:08.066Z,38.90
2023-01-29T14:40:37.297Z,37.20
2023-01-29T14:43:06.016Z,41.10
2023-01-29T14:45:36.433Z,38.97
2023-01-29T14:48:14.524Z,33.87
2023-01-29T14:50:50.966Z,40.73
2023-01-29T14:53:25.000Z,40.37
2023-01-29T14:56:10.557Z,41.00
2023-01-29T14:58:56.213Z,42.17
2023-01-29T15:01:25.954Z,35.33
2023-01-29T15:03:57.955Z,35.10
2023-01-29T15:06:36.672Z,33.87
2023-01-29T15:09:24.842Z,35.17
2023-01-29T15:12:02.651Z,36.27
2023-01-29T15:14:40.789Z,36.87
2023-01-29T15:17:25.708Z,34.83
2023-01-29T15:19:56.710Z,33.77
2023-01-29T15:22:29.018Z,31.77
2023-01-29T15:25:04.502Z,34.00
2023-01-29T15:27:33.419Z,37.50
2023-01-29T15:30:01.590Z,35.13
2023-01-29T15:32:32.509Z,35.43
2023-01-29T15:35:00.405Z,36.43
2023-01-29T15:37:33.420Z,38.20
2023-01-29T15:40:01.045Z,38.33
2023-01-29T15:42:48.680Z,40.27
2023-01-29T15:45:31.919Z,38.00
2023-01-29T15:48:02.187Z,38.50
2023-01-29T15:50:29.644Z,38.57
2023-01-29T15:52:56.473Z,41.80
2023-01-29T15:55:23.478Z,41.13
2023-01-29T15:57:50.342Z,40.10
2023-01-29T16:00:25.074Z,39.87
2023-01-29T16:02:51.953Z,39.23
2023-01-29T16:05:27.479Z,42.00
2023-01-29T16:07:54.458Z,44.27
2023-01-29T16:10:26.537Z,43.07
2023-01-29T16:12:53.550Z,45.50
2023-01-29T16:15:36.140Z,50.87
2023-01-29T16:18:04.982Z,44.90
2023-01-29T16:20:36.591Z,50.70
2023-01-29T16:23:05.955Z,52.80
2023-01-29T16:25:32.754Z,52.33
2023-01-29T16:27:59.574Z,48.00
2023-01-29T16:30:27.894Z,47.30
2023-01-29T16:33:01.728Z,48.33
2023-01-29T16:35:28.564Z,52.63
2023-01-29T16:37:55.664Z,46.57
2023-01-29T16:40:32.454Z,50.63
2023-01-29T16:43:06.768Z,51.50
2023-01-29T16:45:33.612Z,45.57
2023-01-29T16:48:30.371Z,49.23
2023-01-29T16:51:22.819Z,58.10
2023-01-29T16:53:55.463Z,53.83
2023-01-29T16:56:23.556Z,49.67
2023-01-29T16:58:53.204Z,51.30
2023-01-29T17:01:20.051Z,50.90
2023-01-29T17:04:16.161Z,54.23
2023-01-29T17:06:47.025Z,56.40
2023-01-29T17:09:31.449Z,52.80
2023-01-29T17:12:06.838Z,56.90
2023-01-29T17:14:34.378Z,53.43
2023-01-29T17:17:30.534Z,59.43
2023-01-29T17:20:14.036Z,60.07
2023-01-29T17:22:44.682Z,64.37
2023-01-29T17:25:15.391Z,60.43
2023-01-29T17:27:51.410Z,54.20
2023-01-29T17:30:26.387Z,57.90
2023-01-29T17:32:53.451Z,58.00
2023-01-29T17:35:20.842Z,59.80
2023-01-29T17:37:47.918Z,60.20
2023-01-29T17:40:35.401Z,61.67
2023-01-29T17:43:02.233Z,60.03
2023-01-29T17:45:31.269Z,61.87
2023-01-29T17:48:00.188Z,62.27
2023-01-29T17:50:30.746Z,58.77
2023-01-29T17:52:57.571Z,58.47
2023-01-29T17:55:24.319Z,56.13
2023-01-29T17:57:51.104Z,58.17
2023-01-29T18:00:22.598Z,58.57
2023-01-29T18:02:49.423Z,65.80
2023-01-29T18:05:16.590Z,56.90
2023-01-29T18:07:44.833Z,56.87
2023-01-29T18:10:21.803Z,55.13
2023-01-29T18:12:51.195Z,57.63
2023-01-29T18:15:18.269Z,56.90
2023-01-29T18:17:48.553Z,57.50
2023-01-29T18:20:23.731Z,55.27
2023-01-29T18:22:50.567Z,59.87
2023-01-29T18:25:20.227Z,59.67
2023-01-29T18:27:47.580Z,59.87
2023-01-29T18:30:15.035Z,57.60
2023-01-29T18:32:41.992Z,55.80
2023-01-29T18:35:11.628Z,53.80
2023-01-29T18:37:40.643Z,57.23
2023-01-29T18:40:13.699Z,58.97
2023-01-29T18:42:40.979Z,55.40
2023-01-29T18:45:08.253Z,48.67
2023-01-29T18:47:35.041Z,53.00
2023-01-29T18:50:06.759Z,55.87
2023-01-29T18:52:35.643Z,52.07
2023-01-29T18:55:09.669Z,63.57
2023-01-29T18:58:29.555Z,54.83
2023-01-29T19:00:26.155Z,61.37
2023-01-29T19:02:55.377Z,58.67
2023-01-29T19:05:25.659Z,62.67
2023-01-29T19:07:52.501Z,58.33
2023-01-29T19:10:19.415Z,60.67
2023-01-29T19:12:48.570Z,61.93
2023-01-29T19:15:20.664Z,67.50
2023-01-29T19:17:47.569Z,65.40
2023-01-29T19:20:14.707Z,59.00
2023-01-29T19:22:41.698Z,64.33
2023-01-29T19:25:11.732Z,63.13
2023-01-29T19:27:38.544Z,59.67
2023-01-29T19:30:08.439Z,56.93
2023-01-29T19:32:37.475Z,64.93
2023-01-29T19:35:04.965Z,56.03
2023-01-29T19:37:31.874Z,56.10
2023-01-29T19:40:01.122Z,62.67
2023-01-29T19:42:30.082Z,59.27
2023-01-29T19:44:59.082Z,57.93
2023-01-29T19:47:28.464Z,58.90
2023-01-29T19:49:55.244Z,57.27
2023-01-29T19:52:51.224Z,53.17
2023-01-29T19:55:19.622Z,56.13
2023-01-29T19:57:48.835Z,51.13
2023-01-29T20:00:17.557Z,57.70
2023-01-29T20:02:44.418Z,55.70
2023-01-29T20:05:12.999Z,56.13
2023-01-29T20:07:42.546Z,53.87
2023-01-29T20:10:11.506Z,63.93
2023-01-29T20:12:38.480Z,58.17
2023-01-29T20:15:07.240Z,57.00
2023-01-29T20:17:36.640Z,59.17
2023-01-29T20:20:05.651Z,60.07
2023-01-29T20:22:34.839Z,57.63
2023-01-29T20:25:01.608Z,52.63
2023-01-29T20:27:28.394Z,51.77
2023-01-29T20:29:55.215Z,56.97
2023-01-29T20:32:21.992Z,55.03
2023-01-29T20:34:52.166Z,54.67
2023-01-29T20:37:19.718Z,57.03
2023-01-29T20:39:46.807Z,52.63
2023-01-29T20:42:16.036Z,52.43
2023-01-29T20:44:42.850Z,52.13
2023-01-29T20:47:12.247Z,56.53
2023-01-29T20:49:39.175Z,60.00
2023-01-29T20:52:11.346Z,55.03
2023-01-29T20:54:38.166Z,58.73
2023-01-29T20:57:04.992Z,60.90
2023-01-29T20:59:32.349Z,58.57
2023-01-29T21:02:03.919Z,55.93
2023-01-29T21:04:33.043Z,59.33
2023-01-29T21:06:59.852Z,58.83
2023-01-29T21:09:26.836Z,55.30
2023-01-29T21:11:53.692Z,49.83
2023-01-29T21:14:22.949Z,54.67
2023-01-29T21:16:49.778Z,54.30
2023-01-29T21:19:16.723Z,55.47
2023-01-29T21:21:43.515Z,50.87
2023-01-29T21:24:11.779Z,51.50
2023-01-29T21:26:38.664Z,54.43
2023-01-29T21:29:05.568Z,54.67
2023-01-29T21:31:34.895Z,51.47
2023-01-29T21:34:01.804Z,52.07
2023-01-29T21:36:28.575Z,58.90
2023-01-29T21:38:55.587Z,53.73
2023-01-29T21:41:45.054Z,56.93
2023-01-29T21:44:12.367Z,51.87
2023-01-29T21:46:39.254Z,57.77
2023-01-29T21:49:06.165Z,54.90
2023-01-29T21:51:32.926Z,53.57
2023-01-29T21:53:59.699Z,53.87
2023-01-29T21:56:26.586Z,53.60
2023-01-29T21:58:55.743Z,54.13
2023-01-29T22:01:38.043Z,52.60
2023-01-29T22:04:10.097Z,53.70
2023-01-29T22:06:39.123Z,50.20
2023-01-29T22:09:05.935Z,51.43
2023-01-29T22:11:32.947Z,46.83
2023-01-29T22:14:00.093Z,46.83
2023-01-29T22:16:26.968Z,48.17
2023-01-29T22:18:53.809Z,54.00
2023-01-29T22:21:22.820Z,55.73
2023-01-29T22:23:49.647Z,56.47
2023-01-29T22:26:16.609Z,53.00
2023-01-29T22:28:45.793Z,51.80
2023-01-29T22:31:15.115Z,57.03
2023-01-29T22:33:44.025Z,58.17
2023-01-29T22:36:10.921Z,58.57
2023-01-29T22:38:37.719Z,56.00
2023-01-29T22:41:05.505Z,57.17
2023-01-29T22:43:34.488Z,56.53
2023-01-29T22:46:01.549Z,54.63
2023-01-29T22:48:30.783Z,58.33
2023-01-29T22:51:12.087Z,57.30
2023-01-29T22:54:01.155Z,57.37
2023-01-29T22:56:31.276Z,54.10
2023-01-29T22:59:01.293Z,55.20
2023-01-29T23:01:29.938Z,57.00
2023-01-29T23:03:59.501Z,55.03
2023-01-29T23:06:26.317Z,56.60
2023-01-29T23:08:53.286Z,55.97
2023-01-29T23:11:23.624Z,53.10
2023-01-29T23:13:52.144Z,55.23
2023-01-29T23:16:19.818Z,51.80
2023-01-29T23:18:49.186Z,52.30
2023-01-29T23:21:16.032Z,47.73
2023-01-29T23:23:44.930Z,50.40
2023-01-29T23:26:32.921Z,47.93
2023-01-29T23:29:00.100Z,48.77
2023-01-29T23:31:26.982Z,48.83
2023-01-29T23:33:53.898Z,45.60
2023-01-29T23:36:20.746Z,49.53
2023-01-29T23:38:47.563Z,45.33
2023-01-29T23:41:14.377Z,45.57
2023-01-29T23:43:41.187Z,44.63
2023-01-29T23:46:12.573Z,50.23
2023-01-29T23:48:41.457Z,47.23
2023-01-29T23:51:08.292Z,41.70
2023-01-29T23:53:35.112Z,46.13
2023-01-29T23:56:03.115Z,42.73
2023-01-29T23:58:30.041Z,42.73
